sensor_id;sensor_type;location;lat;lon;timestamp;P1;durP1;ratioP1;P2;durP2;ratioP2
10851;SDS011;5479;52.046;6.314;2023-10-08T00:00:50;17.67;;;6.25;;
10851;SDS011;5479;52.046;6.314;2023-10-08T00:03:20;17.67;;;6.40;;
10851;SDS011;5479;52.046;6.314;2023-10-08T00:05:48;15.37;;;6.00;;
10851;SDS011;5479;52.046;6.314;2023-10-08T00:08:17;15.27;;;6.03;;
10851;SDS011;5479;52.046;6.314;2023-10-08T00:10:45;15.97;;;6.10;;
10851;SDS011;5479;52.046;6.314;2023-10-08T00:13:15;16.73;;;6.20;;
10851;SDS011;5479;52.046;6.314;2023-10-08T00:15:43;17.52;;;6.53;;
10851;SDS011;5479;52.046;6.314;2023-10-08T00:18:18;14.63;;;6.72;;
10851;SDS011;5479;52.046;6.314;2023-10-08T00:20:47;16.55;;;6.82;;
10851;SDS011;5479;52.046;6.314;2023-10-08T00:23:22;18.75;;;6.32;;
10851;SDS011;5479;52.046;6.314;2023-10-08T00:25:52;17.20;;;6.40;;
10851;SDS011;5479;52.046;6.314;2023-10-08T00:28:22;16.40;;;6.47;;
10851;SDS011;5479;52.046;6.314;2023-10-08T00:30:50;11.30;;;5.78;;
10851;SDS011;5479;52.046;6.314;2023-10-08T00:33:20;16.98;;;6.53;;
10851;SDS011;5479;52.046;6.314;2023-10-08T00:35:48;14.80;;;6.00;;
10851;SDS011;5479;52.046;6.314;2023-10-08T00:38:16;15.07;;;6.15;;
10851;SDS011;5479;52.046;6.314;2023-10-08T00:40:46;16.58;;;6.65;;
10851;SDS011;5479;52.046;6.314;2023-10-08T00:43:32;15.70;;;6.53;;
10851;SDS011;5479;52.046;6.314;2023-10-08T00:46:01;15.25;;;6.82;;
10851;SDS011;5479;52.046;6.314;2023-10-08T00:48:30;17.13;;;6.07;;
10851;SDS011;5479;52.046;6.314;2023-10-08T00:51:02;19.70;;;6.80;;
10851;SDS011;5479;52.046;6.314;2023-10-08T00:53:43;17.80;;;7.03;;
10851;SDS011;5479;52.046;6.314;2023-10-08T00:56:12;16.67;;;6.82;;
10851;SDS011;5479;52.046;6.314;2023-10-08T00:58:46;16.90;;;6.68;;
10851;SDS011;5479;52.046;6.314;2023-10-08T01:01:20;16.80;;;6.38;;
10851;SDS011;5479;52.046;6.314;2023-10-08T01:03:48;18.20;;;7.00;;
10851;SDS011;5479;52.046;6.314;2023-10-08T01:06:16;17.23;;;6.43;;
10851;SDS011;5479;52.046;6.314;2023-10-08T01:08:46;11.65;;;6.00;;
10851;SDS011;5479;52.046;6.314;2023-10-08T01:11:19;17.10;;;7.00;;
10851;SDS011;5479;52.046;6.314;2023-10-08T01:13:58;15.45;;;6.38;;
10851;SDS011;5479;52.046;6.314;2023-10-08T01:16:27;16.30;;;6.88;;
10851;SDS011;5479;52.046;6.314;2023-10-08T01:18:59;18.30;;;7.07;;
10851;SDS011;5479;52.046;6.314;2023-10-08T01:21:28;16.87;;;7.10;;
10851;SDS011;5479;52.046;6.314;2023-10-08T01:24:07;21.88;;;7.65;;
10851;SDS011;5479;52.046;6.314;2023-10-08T01:26:43;19.90;;;8.00;;
10851;SDS011;5479;52.046;6.314;2023-10-08T01:29:12;20.40;;;7.38;;
10851;SDS011;5479;52.046;6.314;2023-10-08T01:31:46;15.38;;;6.45;;
10851;SDS011;5479;52.046;6.314;2023-10-08T01:34:15;15.67;;;6.73;;
10851;SDS011;5479;52.046;6.314;2023-10-08T01:36:44;16.48;;;7.10;;
10851;SDS011;5479;52.046;6.314;2023-10-08T01:39:15;19.42;;;6.97;;
10851;SDS011;5479;52.046;6.314;2023-10-08T01:41:43;13.50;;;6.22;;
10851;SDS011;5479;52.046;6.314;2023-10-08T01:44:13;14.40;;;6.50;;
10851;SDS011;5479;52.046;6.314;2023-10-08T01:46:41;17.57;;;7.43;;
10851;SDS011;5479;52.046;6.314;2023-10-08T01:49:08;13.57;;;6.95;;
10851;SDS011;5479;52.046;6.314;2023-10-08T01:51:41;17.47;;;7.23;;
10851;SDS011;5479;52.046;6.314;2023-10-08T01:54:15;17.13;;;6.80;;
10851;SDS011;5479;52.046;6.314;2023-10-08T01:56:44;19.00;;;8.10;;
10851;SDS011;5479;52.046;6.314;2023-10-08T01:59:12;14.48;;;7.07;;
10851;SDS011;5479;52.046;6.314;2023-10-08T02:01:42;17.40;;;7.13;;
10851;SDS011;5479;52.046;6.314;2023-10-08T02:04:11;13.52;;;6.53;;
10851;SDS011;5479;52.046;6.314;2023-10-08T02:06:42;11.40;;;5.88;;
10851;SDS011;5479;52.046;6.314;2023-10-08T02:09:12;17.23;;;7.67;;
10851;SDS011;5479;52.046;6.314;2023-10-08T02:11:45;17.55;;;7.30;;
10851;SDS011;5479;52.046;6.314;2023-10-08T02:14:16;15.80;;;7.20;;
10851;SDS011;5479;52.046;6.314;2023-10-08T02:16:44;12.90;;;6.23;;
10851;SDS011;5479;52.046;6.314;2023-10-08T02:19:12;23.13;;;8.18;;
10851;SDS011;5479;52.046;6.314;2023-10-08T02:21:44;16.92;;;7.63;;
10851;SDS011;5479;52.046;6.314;2023-10-08T02:24:13;21.03;;;7.67;;
10851;SDS011;5479;52.046;6.314;2023-10-08T02:26:41;20.13;;;8.10;;
10851;SDS011;5479;52.046;6.314;2023-10-08T02:29:11;15.05;;;7.57;;
10851;SDS011;5479;52.046;6.314;2023-10-08T02:31:39;18.90;;;7.30;;
10851;SDS011;5479;52.046;6.314;2023-10-08T02:34:08;14.93;;;7.47;;
10851;SDS011;5479;52.046;6.314;2023-10-08T02:36:38;18.03;;;8.30;;
10851;SDS011;5479;52.046;6.314;2023-10-08T02:39:07;19.33;;;8.10;;
10851;SDS011;5479;52.046;6.314;2023-10-08T02:41:41;21.08;;;7.95;;
10851;SDS011;5479;52.046;6.314;2023-10-08T02:44:11;22.73;;;8.20;;
10851;SDS011;5479;52.046;6.314;2023-10-08T02:46:40;21.90;;;8.33;;
10851;SDS011;5479;52.046;6.314;2023-10-08T02:49:08;23.30;;;7.78;;
10851;SDS011;5479;52.046;6.314;2023-10-08T02:51:39;17.27;;;7.60;;
10851;SDS011;5479;52.046;6.314;2023-10-08T02:54:07;19.10;;;7.40;;
10851;SDS011;5479;52.046;6.314;2023-10-08T02:56:43;20.90;;;7.90;;
10851;SDS011;5479;52.046;6.314;2023-10-08T02:59:13;20.65;;;8.18;;
10851;SDS011;5479;52.046;6.314;2023-10-08T03:01:41;18.27;;;7.65;;
10851;SDS011;5479;52.046;6.314;2023-10-08T03:04:09;23.35;;;8.68;;
10851;SDS011;5479;52.046;6.314;2023-10-08T03:06:45;17.20;;;7.60;;
10851;SDS011;5479;52.046;6.314;2023-10-08T03:09:17;19.52;;;7.60;;
10851;SDS011;5479;52.046;6.314;2023-10-08T03:11:47;20.27;;;8.43;;
10851;SDS011;5479;52.046;6.314;2023-10-08T03:14:16;17.23;;;8.30;;
10851;SDS011;5479;52.046;6.314;2023-10-08T03:16:49;16.20;;;7.87;;
10851;SDS011;5479;52.046;6.314;2023-10-08T03:19:18;19.07;;;7.60;;
10851;SDS011;5479;52.046;6.314;2023-10-08T03:21:47;20.45;;;8.50;;
10851;SDS011;5479;52.046;6.314;2023-10-08T03:24:21;17.65;;;8.52;;
10851;SDS011;5479;52.046;6.314;2023-10-08T03:27:05;13.67;;;7.23;;
10851;SDS011;5479;52.046;6.314;2023-10-08T03:29:37;12.33;;;6.37;;
10851;SDS011;5479;52.046;6.314;2023-10-08T03:32:08;10.53;;;5.93;;
10851;SDS011;5479;52.046;6.314;2023-10-08T03:34:43;8.37;;;5.03;;
10851;SDS011;5479;52.046;6.314;2023-10-08T03:37:13;11.33;;;5.27;;
10851;SDS011;5479;52.046;6.314;2023-10-08T03:39:47;10.70;;;5.40;;
10851;SDS011;5479;52.046;6.314;2023-10-08T03:42:19;10.20;;;5.37;;
10851;SDS011;5479;52.046;6.314;2023-10-08T03:44:50;10.03;;;4.87;;
10851;SDS011;5479;52.046;6.314;2023-10-08T03:47:18;11.57;;;5.03;;
10851;SDS011;5479;52.046;6.314;2023-10-08T03:49:49;8.43;;;4.97;;
10851;SDS011;5479;52.046;6.314;2023-10-08T03:52:18;11.37;;;5.00;;
10851;SDS011;5479;52.046;6.314;2023-10-08T03:54:49;10.37;;;4.37;;
10851;SDS011;5479;52.046;6.314;2023-10-08T03:57:31;8.80;;;4.53;;
10851;SDS011;5479;52.046;6.314;2023-10-08T04:00:11;9.70;;;4.70;;
10851;SDS011;5479;52.046;6.314;2023-10-08T04:02:45;9.60;;;4.87;;
10851;SDS011;5479;52.046;6.314;2023-10-08T04:05:20;10.47;;;4.33;;
10851;SDS011;5479;52.046;6.314;2023-10-08T04:08:13;12.43;;;5.43;;
10851;SDS011;5479;52.046;6.314;2023-10-08T04:10:51;11.37;;;4.60;;
10851;SDS011;5479;52.046;6.314;2023-10-08T04:13:48;8.47;;;4.53;;
10851;SDS011;5479;52.046;6.314;2023-10-08T04:16:19;9.77;;;4.53;;
10851;SDS011;5479;52.046;6.314;2023-10-08T04:18:47;9.20;;;4.60;;
10851;SDS011;5479;52.046;6.314;2023-10-08T04:21:17;9.80;;;4.80;;
10851;SDS011;5479;52.046;6.314;2023-10-08T04:23:47;8.90;;;3.90;;
10851;SDS011;5479;52.046;6.314;2023-10-08T04:26:19;8.30;;;3.93;;
10851;SDS011;5479;52.046;6.314;2023-10-08T04:28:50;8.23;;;4.00;;
10851;SDS011;5479;52.046;6.314;2023-10-08T04:31:25;7.80;;;3.90;;
10851;SDS011;5479;52.046;6.314;2023-10-08T04:33:55;6.70;;;3.80;;
10851;SDS011;5479;52.046;6.314;2023-10-08T04:36:26;9.43;;;4.00;;
10851;SDS011;5479;52.046;6.314;2023-10-08T04:38:54;9.07;;;4.30;;
10851;SDS011;5479;52.046;6.314;2023-10-08T04:41:30;5.90;;;3.53;;
10851;SDS011;5479;52.046;6.314;2023-10-08T04:44:00;7.23;;;3.00;;
10851;SDS011;5479;52.046;6.314;2023-10-08T04:46:35;4.77;;;2.70;;
10851;SDS011;5479;52.046;6.314;2023-10-08T04:49:13;6.10;;;2.80;;
10851;SDS011;5479;52.046;6.314;2023-10-08T04:51:54;5.53;;;2.73;;
10851;SDS011;5479;52.046;6.314;2023-10-08T04:54:27;6.27;;;3.10;;
10851;SDS011;5479;52.046;6.314;2023-10-08T04:56:57;6.43;;;3.10;;
10851;SDS011;5479;52.046;6.314;2023-10-08T04:59:26;7.50;;;3.30;;
10851;SDS011;5479;52.046;6.314;2023-10-08T05:02:01;6.13;;;3.37;;
10851;SDS011;5479;52.046;6.314;2023-10-08T05:04:47;5.63;;;3.60;;
10851;SDS011;5479;52.046;6.314;2023-10-08T05:07:48;7.83;;;4.10;;
10851;SDS011;5479;52.046;6.314;2023-10-08T05:10:43;6.50;;;3.77;;
10851;SDS011;5479;52.046;6.314;2023-10-08T05:13:29;6.83;;;3.60;;
10851;SDS011;5479;52.046;6.314;2023-10-08T05:16:11;5.97;;;3.70;;
10851;SDS011;5479;52.046;6.314;2023-10-08T05:18:57;6.67;;;3.47;;
10851;SDS011;5479;52.046;6.314;2023-10-08T05:21:58;6.33;;;3.77;;
10851;SDS011;5479;52.046;6.314;2023-10-08T05:24:44;8.30;;;3.50;;
10851;SDS011;5479;52.046;6.314;2023-10-08T05:27:32;7.43;;;3.60;;
10851;SDS011;5479;52.046;6.314;2023-10-08T05:30:23;5.20;;;3.63;;
10851;SDS011;5479;52.046;6.314;2023-10-08T05:32:55;6.13;;;3.67;;
10851;SDS011;5479;52.046;6.314;2023-10-08T05:35:50;6.00;;;3.40;;
10851;SDS011;5479;52.046;6.314;2023-10-08T05:38:28;6.47;;;3.70;;
10851;SDS011;5479;52.046;6.314;2023-10-08T05:41:15;5.20;;;3.53;;
10851;SDS011;5479;52.046;6.314;2023-10-08T05:44:00;6.60;;;3.73;;
10851;SDS011;5479;52.046;6.314;2023-10-08T05:46:50;6.40;;;3.63;;
10851;SDS011;5479;52.046;6.314;2023-10-08T05:49:35;6.80;;;4.13;;
10851;SDS011;5479;52.046;6.314;2023-10-08T05:52:10;6.67;;;4.37;;
10851;SDS011;5479;52.046;6.314;2023-10-08T05:54:51;8.23;;;4.60;;
10851;SDS011;5479;52.046;6.314;2023-10-08T05:57:42;6.90;;;4.60;;
10851;SDS011;5479;52.046;6.314;2023-10-08T06:00:18;6.13;;;4.27;;
10851;SDS011;5479;52.046;6.314;2023-10-08T06:03:04;6.83;;;4.63;;
10851;SDS011;5479;52.046;6.314;2023-10-08T06:05:48;7.63;;;4.80;;
10851;SDS011;5479;52.046;6.314;2023-10-08T06:08:35;9.77;;;5.57;;
10851;SDS011;5479;52.046;6.314;2023-10-08T06:11:16;8.70;;;5.00;;
10851;SDS011;5479;52.046;6.314;2023-10-08T06:13:54;7.77;;;5.07;;
10851;SDS011;5479;52.046;6.314;2023-10-08T06:16:26;8.77;;;5.87;;
10851;SDS011;5479;52.046;6.314;2023-10-08T06:19:10;9.13;;;5.77;;
10851;SDS011;5479;52.046;6.314;2023-10-08T06:21:38;8.87;;;6.20;;
10851;SDS011;5479;52.046;6.314;2023-10-08T06:24:08;9.10;;;6.23;;
10851;SDS011;5479;52.046;6.314;2023-10-08T06:26:38;10.40;;;6.47;;
10851;SDS011;5479;52.046;6.314;2023-10-08T06:29:10;9.23;;;6.23;;
10851;SDS011;5479;52.046;6.314;2023-10-08T06:31:53;9.00;;;6.40;;
10851;SDS011;5479;52.046;6.314;2023-10-08T06:34:21;9.63;;;6.43;;
10851;SDS011;5479;52.046;6.314;2023-10-08T06:36:54;9.53;;;6.60;;
10851;SDS011;5479;52.046;6.314;2023-10-08T06:39:25;10.33;;;6.10;;
10851;SDS011;5479;52.046;6.314;2023-10-08T06:41:59;9.87;;;6.13;;
10851;SDS011;5479;52.046;6.314;2023-10-08T06:44:29;9.00;;;6.33;;
10851;SDS011;5479;52.046;6.314;2023-10-08T06:46:57;9.40;;;6.50;;
10851;SDS011;5479;52.046;6.314;2023-10-08T06:49:24;9.63;;;6.37;;
10851;SDS011;5479;52.046;6.314;2023-10-08T06:51:53;8.80;;;6.07;;
10851;SDS011;5479;52.046;6.314;2023-10-08T06:54:21;10.50;;;6.77;;
10851;SDS011;5479;52.046;6.314;2023-10-08T06:56:50;9.67;;;6.47;;
10851;SDS011;5479;52.046;6.314;2023-10-08T06:59:19;10.17;;;6.67;;
10851;SDS011;5479;52.046;6.314;2023-10-08T07:01:49;8.73;;;6.20;;
10851;SDS011;5479;52.046;6.314;2023-10-08T07:04:18;9.57;;;6.53;;
10851;SDS011;5479;52.046;6.314;2023-10-08T07:06:48;8.37;;;5.93;;
10851;SDS011;5479;52.046;6.314;2023-10-08T07:09:17;9.83;;;6.40;;
10851;SDS011;5479;52.046;6.314;2023-10-08T07:11:57;10.07;;;6.57;;
10851;SDS011;5479;52.046;6.314;2023-10-08T07:14:32;10.63;;;6.23;;
10851;SDS011;5479;52.046;6.314;2023-10-08T07:17:00;10.80;;;5.60;;
10851;SDS011;5479;52.046;6.314;2023-10-08T07:19:34;10.93;;;4.97;;
10851;SDS011;5479;52.046;6.314;2023-10-08T07:22:05;10.07;;;5.47;;
10851;SDS011;5479;52.046;6.314;2023-10-08T07:24:48;8.10;;;4.97;;
10851;SDS011;5479;52.046;6.314;2023-10-08T07:27:19;8.07;;;4.47;;
10851;SDS011;5479;52.046;6.314;2023-10-08T07:29:51;8.37;;;4.73;;
10851;SDS011;5479;52.046;6.314;2023-10-08T07:32:21;7.90;;;4.30;;
10851;SDS011;5479;52.046;6.314;2023-10-08T07:34:51;8.53;;;4.70;;
10851;SDS011;5479;52.046;6.314;2023-10-08T07:37:24;7.43;;;4.23;;
10851;SDS011;5479;52.046;6.314;2023-10-08T07:39:52;7.80;;;4.43;;
10851;SDS011;5479;52.046;6.314;2023-10-08T07:42:23;7.70;;;4.17;;
10851;SDS011;5479;52.046;6.314;2023-10-08T07:44:52;6.93;;;4.20;;
10851;SDS011;5479;52.046;6.314;2023-10-08T07:47:21;9.60;;;4.20;;
10851;SDS011;5479;52.046;6.314;2023-10-08T07:49:49;7.20;;;3.80;;
10851;SDS011;5479;52.046;6.314;2023-10-08T07:52:18;7.00;;;4.03;;
10851;SDS011;5479;52.046;6.314;2023-10-08T07:54:47;7.23;;;3.87;;
10851;SDS011;5479;52.046;6.314;2023-10-08T07:57:15;5.90;;;3.37;;
10851;SDS011;5479;52.046;6.314;2023-10-08T07:59:53;8.37;;;3.20;;
10851;SDS011;5479;52.046;6.314;2023-10-08T08:02:27;7.33;;;3.90;;
10851;SDS011;5479;52.046;6.314;2023-10-08T08:04:55;5.27;;;3.07;;
10851;SDS011;5479;52.046;6.314;2023-10-08T08:07:23;7.83;;;3.20;;
10851;SDS011;5479;52.046;6.314;2023-10-08T08:09:52;6.53;;;3.30;;
10851;SDS011;5479;52.046;6.314;2023-10-08T08:12:26;6.10;;;3.00;;
10851;SDS011;5479;52.046;6.314;2023-10-08T08:15:00;6.97;;;3.47;;
10851;SDS011;5479;52.046;6.314;2023-10-08T08:17:41;5.97;;;3.30;;
10851;SDS011;5479;52.046;6.314;2023-10-08T08:20:09;7.33;;;3.57;;
10851;SDS011;5479;52.046;6.314;2023-10-08T08:22:45;6.00;;;3.30;;
10851;SDS011;5479;52.046;6.314;2023-10-08T08:25:16;5.17;;;2.83;;
10851;SDS011;5479;52.046;6.314;2023-10-08T08:27:52;8.20;;;3.43;;
10851;SDS011;5479;52.046;6.314;2023-10-08T08:30:22;5.20;;;3.10;;
10851;SDS011;5479;52.046;6.314;2023-10-08T08:32:52;6.17;;;3.20;;
10851;SDS011;5479;52.046;6.314;2023-10-08T08:35:22;7.13;;;3.40;;
10851;SDS011;5479;52.046;6.314;2023-10-08T08:37:51;9.40;;;3.10;;
10851;SDS011;5479;52.046;6.314;2023-10-08T08:40:19;6.30;;;2.90;;
10851;SDS011;5479;52.046;6.314;2023-10-08T08:42:49;6.10;;;2.97;;
10851;SDS011;5479;52.046;6.314;2023-10-08T08:45:19;7.17;;;3.00;;
10851;SDS011;5479;52.046;6.314;2023-10-08T08:47:49;4.90;;;2.40;;
10851;SDS011;5479;52.046;6.314;2023-10-08T08:50:18;4.60;;;2.40;;
10851;SDS011;5479;52.046;6.314;2023-10-08T08:52:47;5.77;;;2.87;;
10851;SDS011;5479;52.046;6.314;2023-10-08T08:55:15;4.60;;;2.57;;
10851;SDS011;5479;52.046;6.314;2023-10-08T08:57:44;6.20;;;2.50;;
10851;SDS011;5479;52.046;6.314;2023-10-08T09:00:15;5.90;;;2.50;;
10851;SDS011;5479;52.046;6.314;2023-10-08T09:02:45;7.63;;;3.33;;
10851;SDS011;5479;52.046;6.314;2023-10-08T09:05:16;8.57;;;3.00;;
10851;SDS011;5479;52.046;6.314;2023-10-08T09:07:58;4.67;;;2.70;;
10851;SDS011;5479;52.046;6.314;2023-10-08T09:10:30;6.47;;;2.87;;
10851;SDS011;5479;52.046;6.314;2023-10-08T09:13:03;5.47;;;2.70;;
10851;SDS011;5479;52.046;6.314;2023-10-08T09:15:33;7.17;;;3.40;;
10851;SDS011;5479;52.046;6.314;2023-10-08T09:18:03;6.80;;;2.93;;
10851;SDS011;5479;52.046;6.314;2023-10-08T09:20:32;6.20;;;3.03;;
10851;SDS011;5479;52.046;6.314;2023-10-08T09:23:09;7.47;;;3.27;;
10851;SDS011;5479;52.046;6.314;2023-10-08T09:25:39;5.87;;;2.80;;
10851;SDS011;5479;52.046;6.314;2023-10-08T09:28:07;5.10;;;2.43;;
10851;SDS011;5479;52.046;6.314;2023-10-08T09:30:35;7.83;;;2.37;;
10851;SDS011;5479;52.046;6.314;2023-10-08T09:33:04;10.10;;;2.80;;
10851;SDS011;5479;52.046;6.314;2023-10-08T09:35:34;5.93;;;2.40;;
10851;SDS011;5479;52.046;6.314;2023-10-08T09:38:03;6.60;;;2.20;;
10851;SDS011;5479;52.046;6.314;2023-10-08T09:40:35;4.97;;;1.93;;
10851;SDS011;5479;52.046;6.314;2023-10-08T09:43:04;5.53;;;2.10;;
10851;SDS011;5479;52.046;6.314;2023-10-08T09:45:34;6.93;;;1.90;;
10851;SDS011;5479;52.046;6.314;2023-10-08T09:48:07;5.47;;;2.07;;
10851;SDS011;5479;52.046;6.314;2023-10-08T09:50:40;8.17;;;2.70;;
10851;SDS011;5479;52.046;6.314;2023-10-08T09:53:11;3.83;;;1.83;;
10851;SDS011;5479;52.046;6.314;2023-10-08T09:55:44;5.47;;;1.80;;
10851;SDS011;5479;52.046;6.314;2023-10-08T09:58:15;9.23;;;2.70;;
10851;SDS011;5479;52.046;6.314;2023-10-08T10:00:44;5.73;;;2.20;;
10851;SDS011;5479;52.046;6.314;2023-10-08T10:03:15;5.57;;;2.20;;
10851;SDS011;5479;52.046;6.314;2023-10-08T10:05:47;6.87;;;2.40;;
10851;SDS011;5479;52.046;6.314;2023-10-08T10:08:16;6.18;;;2.15;;
10851;SDS011;5479;52.046;6.314;2023-10-08T10:10:44;6.03;;;1.92;;
10851;SDS011;5479;52.046;6.314;2023-10-08T10:13:16;5.65;;;2.03;;
10851;SDS011;5479;52.046;6.314;2023-10-08T10:15:44;4.57;;;2.10;;
10851;SDS011;5479;52.046;6.314;2023-10-08T10:18:15;6.47;;;2.13;;
10851;SDS011;5479;52.046;6.314;2023-10-08T10:20:58;6.53;;;2.00;;
10851;SDS011;5479;52.046;6.314;2023-10-08T10:23:36;6.18;;;2.20;;
10851;SDS011;5479;52.046;6.314;2023-10-08T10:26:21;6.65;;;2.10;;
10851;SDS011;5479;52.046;6.314;2023-10-08T10:31:49;5.88;;;1.90;;
10851;SDS011;5479;52.046;6.314;2023-10-08T10:34:20;4.00;;;1.77;;
10851;SDS011;5479;52.046;6.314;2023-10-08T10:36:51;7.07;;;2.60;;
10851;SDS011;5479;52.046;6.314;2023-10-08T10:39:29;5.70;;;2.25;;
10851;SDS011;5479;52.046;6.314;2023-10-08T10:42:00;3.40;;;1.75;;
10851;SDS011;5479;52.046;6.314;2023-10-08T10:44:32;7.15;;;2.35;;
10851;SDS011;5479;52.046;6.314;2023-10-08T10:47:03;5.80;;;2.55;;
10851;SDS011;5479;52.046;6.314;2023-10-08T10:49:49;4.82;;;2.05;;
10851;SDS011;5479;52.046;6.314;2023-10-08T10:52:22;4.65;;;2.15;;
10851;SDS011;5479;52.046;6.314;2023-10-08T10:55:01;5.07;;;2.00;;
10851;SDS011;5479;52.046;6.314;2023-10-08T10:57:52;4.22;;;2.10;;
10851;SDS011;5479;52.046;6.314;2023-10-08T11:00:22;4.28;;;2.00;;
10851;SDS011;5479;52.046;6.314;2023-10-08T11:03:09;3.88;;;2.00;;
10851;SDS011;5479;52.046;6.314;2023-10-08T11:05:54;5.88;;;2.20;;
10851;SDS011;5479;52.046;6.314;2023-10-08T11:08:27;4.28;;;1.77;;
10851;SDS011;5479;52.046;6.314;2023-10-08T11:11:01;3.88;;;2.45;;
10851;SDS011;5479;52.046;6.314;2023-10-08T11:13:32;4.22;;;2.20;;
10851;SDS011;5479;52.046;6.314;2023-10-08T11:16:07;3.80;;;2.20;;
10851;SDS011;5479;52.046;6.314;2023-10-08T11:18:42;3.35;;;2.10;;
10851;SDS011;5479;52.046;6.314;2023-10-08T11:21:13;4.45;;;2.55;;
10851;SDS011;5479;52.046;6.314;2023-10-08T11:23:43;4.93;;;2.67;;
10851;SDS011;5479;52.046;6.314;2023-10-08T11:26:20;5.65;;;2.70;;
10851;SDS011;5479;52.046;6.314;2023-10-08T11:28:59;3.97;;;2.33;;
10851;SDS011;5479;52.046;6.314;2023-10-08T11:31:29;4.63;;;2.67;;
10851;SDS011;5479;52.046;6.314;2023-10-08T11:34:00;5.82;;;2.65;;
10851;SDS011;5479;52.046;6.314;2023-10-08T11:36:35;5.03;;;2.60;;
10851;SDS011;5479;52.046;6.314;2023-10-08T11:39:15;4.93;;;2.75;;
10851;SDS011;5479;52.046;6.314;2023-10-08T11:41:56;4.38;;;2.40;;
10851;SDS011;5479;52.046;6.314;2023-10-08T11:44:30;6.00;;;2.40;;
10851;SDS011;5479;52.046;6.314;2023-10-08T11:47:02;5.82;;;2.92;;
10851;SDS011;5479;52.046;6.314;2023-10-08T11:49:38;6.18;;;3.05;;
10851;SDS011;5479;52.046;6.314;2023-10-08T11:52:14;5.45;;;2.75;;
10851;SDS011;5479;52.046;6.314;2023-10-08T11:54:44;4.95;;;2.60;;
10851;SDS011;5479;52.046;6.314;2023-10-08T11:57:15;4.85;;;2.60;;
10851;SDS011;5479;52.046;6.314;2023-10-08T11:59:48;4.32;;;2.25;;
10851;SDS011;5479;52.046;6.314;2023-10-08T12:02:20;4.22;;;2.20;;
10851;SDS011;5479;52.046;6.314;2023-10-08T12:04:49;4.10;;;2.25;;
10851;SDS011;5479;52.046;6.314;2023-10-08T12:07:17;5.35;;;2.63;;
10851;SDS011;5479;52.046;6.314;2023-10-08T12:09:55;4.15;;;2.35;;
10851;SDS011;5479;52.046;6.314;2023-10-08T12:12:23;4.72;;;2.28;;
10851;SDS011;5479;52.046;6.314;2023-10-08T12:14:57;3.95;;;2.13;;
10851;SDS011;5479;52.046;6.314;2023-10-08T12:17:26;3.88;;;2.30;;
10851;SDS011;5479;52.046;6.314;2023-10-08T12:20:04;3.45;;;2.00;;
10851;SDS011;5479;52.046;6.314;2023-10-08T12:22:49;4.28;;;2.28;;
10851;SDS011;5479;52.046;6.314;2023-10-08T12:25:18;4.63;;;2.00;;
10851;SDS011;5479;52.046;6.314;2023-10-08T12:27:46;3.78;;;2.28;;
10851;SDS011;5479;52.046;6.314;2023-10-08T12:30:15;3.65;;;1.80;;
10851;SDS011;5479;52.046;6.314;2023-10-08T12:32:43;3.42;;;1.83;;
10851;SDS011;5479;52.046;6.314;2023-10-08T12:35:14;2.55;;;1.70;;
10851;SDS011;5479;52.046;6.314;2023-10-08T12:37:42;4.43;;;2.13;;
10851;SDS011;5479;52.046;6.314;2023-10-08T12:40:10;1.83;;;1.50;;
10851;SDS011;5479;52.046;6.314;2023-10-08T12:42:51;3.37;;;1.93;;
10851;SDS011;5479;52.046;6.314;2023-10-08T12:45:20;3.90;;;1.77;;
10851;SDS011;5479;52.046;6.314;2023-10-08T12:47:49;4.63;;;2.00;;
10851;SDS011;5479;52.046;6.314;2023-10-08T12:50:18;2.93;;;1.63;;
10851;SDS011;5479;52.046;6.314;2023-10-08T12:52:55;3.70;;;1.92;;
10851;SDS011;5479;52.046;6.314;2023-10-08T12:55:23;3.53;;;2.40;;
10851;SDS011;5479;52.046;6.314;2023-10-08T12:57:53;4.03;;;2.37;;
10851;SDS011;5479;52.046;6.314;2023-10-08T13:00:22;4.33;;;2.40;;
10851;SDS011;5479;52.046;6.314;2023-10-08T13:02:53;4.15;;;2.45;;
10851;SDS011;5479;52.046;6.314;2023-10-08T13:05:21;5.15;;;2.50;;
10851;SDS011;5479;52.046;6.314;2023-10-08T13:07:54;4.57;;;2.70;;
10851;SDS011;5479;52.046;6.314;2023-10-08T13:10:23;5.43;;;2.43;;
10851;SDS011;5479;52.046;6.314;2023-10-08T13:12:53;3.90;;;2.65;;
10851;SDS011;5479;52.046;6.314;2023-10-08T13:15:23;3.77;;;2.60;;
10851;SDS011;5479;52.046;6.314;2023-10-08T13:17:52;4.50;;;2.57;;
10851;SDS011;5479;52.046;6.314;2023-10-08T13:20:20;4.57;;;2.93;;
10851;SDS011;5479;52.046;6.314;2023-10-08T13:22:50;4.20;;;3.03;;
10851;SDS011;5479;52.046;6.314;2023-10-08T13:25:17;4.25;;;2.60;;
10851;SDS011;5479;52.046;6.314;2023-10-08T13:27:47;5.50;;;3.50;;
10851;SDS011;5479;52.046;6.314;2023-10-08T13:30:16;4.83;;;3.00;;
10851;SDS011;5479;52.046;6.314;2023-10-08T13:32:44;4.60;;;2.80;;
10851;SDS011;5479;52.046;6.314;2023-10-08T13:35:12;4.20;;;2.80;;
10851;SDS011;5479;52.046;6.314;2023-10-08T13:37:40;3.47;;;2.40;;
10851;SDS011;5479;52.046;6.314;2023-10-08T13:40:09;4.40;;;2.60;;
10851;SDS011;5479;52.046;6.314;2023-10-08T13:42:41;6.20;;;2.70;;
10851;SDS011;5479;52.046;6.314;2023-10-08T13:45:09;4.17;;;2.40;;
10851;SDS011;5479;52.046;6.314;2023-10-08T13:47:53;3.27;;;2.10;;
10851;SDS011;5479;52.046;6.314;2023-10-08T13:50:23;3.53;;;2.20;;
10851;SDS011;5479;52.046;6.314;2023-10-08T13:52:51;4.53;;;1.93;;
10851;SDS011;5479;52.046;6.314;2023-10-08T13:55:19;4.03;;;1.90;;
10851;SDS011;5479;52.046;6.314;2023-10-08T13:57:51;4.83;;;1.90;;
10851;SDS011;5479;52.046;6.314;2023-10-08T14:00:20;3.57;;;1.80;;
10851;SDS011;5479;52.046;6.314;2023-10-08T14:02:53;3.47;;;2.00;;
10851;SDS011;5479;52.046;6.314;2023-10-08T14:05:21;3.83;;;1.57;;
10851;SDS011;5479;52.046;6.314;2023-10-08T14:07:50;3.60;;;1.80;;
10851;SDS011;5479;52.046;6.314;2023-10-08T14:10:19;4.77;;;1.60;;
10851;SDS011;5479;52.046;6.314;2023-10-08T14:12:56;4.33;;;1.70;;
10851;SDS011;5479;52.046;6.314;2023-10-08T14:15:28;4.40;;;1.80;;
10851;SDS011;5479;52.046;6.314;2023-10-08T14:18:00;4.90;;;1.80;;
10851;SDS011;5479;52.046;6.314;2023-10-08T14:20:31;3.60;;;1.80;;
10851;SDS011;5479;52.046;6.314;2023-10-08T14:22:59;5.07;;;2.10;;
10851;SDS011;5479;52.046;6.314;2023-10-08T14:25:30;3.70;;;1.97;;
10851;SDS011;5479;52.046;6.314;2023-10-08T14:27:59;5.40;;;2.03;;
10851;SDS011;5479;52.046;6.314;2023-10-08T14:30:31;4.63;;;2.10;;
10851;SDS011;5479;52.046;6.314;2023-10-08T14:33:03;4.57;;;2.00;;
10851;SDS011;5479;52.046;6.314;2023-10-08T14:35:35;5.27;;;2.00;;
10851;SDS011;5479;52.046;6.314;2023-10-08T14:38:20;5.87;;;2.20;;
10851;SDS011;5479;52.046;6.314;2023-10-08T14:41:05;4.53;;;1.73;;
10851;SDS011;5479;52.046;6.314;2023-10-08T14:43:51;6.63;;;1.80;;
10851;SDS011;5479;52.046;6.314;2023-10-08T14:46:19;3.50;;;1.67;;
10851;SDS011;5479;52.046;6.314;2023-10-08T14:48:48;4.47;;;1.70;;
10851;SDS011;5479;52.046;6.314;2023-10-08T14:51:16;5.37;;;1.90;;
10851;SDS011;5479;52.046;6.314;2023-10-08T14:53:45;7.30;;;2.27;;
10851;SDS011;5479;52.046;6.314;2023-10-08T14:56:14;4.00;;;1.70;;
10851;SDS011;5479;52.046;6.314;2023-10-08T14:58:44;3.87;;;2.07;;
10851;SDS011;5479;52.046;6.314;2023-10-08T15:01:14;4.07;;;2.00;;
10851;SDS011;5479;52.046;6.314;2023-10-08T15:03:42;6.17;;;2.00;;
10851;SDS011;5479;52.046;6.314;2023-10-08T15:06:13;4.60;;;1.93;;
10851;SDS011;5479;52.046;6.314;2023-10-08T15:08:42;7.17;;;2.00;;
10851;SDS011;5479;52.046;6.314;2023-10-08T15:11:10;4.70;;;1.87;;
10851;SDS011;5479;52.046;6.314;2023-10-08T15:13:38;3.43;;;1.70;;
10851;SDS011;5479;52.046;6.314;2023-10-08T15:16:07;5.10;;;1.70;;
10851;SDS011;5479;52.046;6.314;2023-10-08T15:18:34;4.83;;;2.00;;
10851;SDS011;5479;52.046;6.314;2023-10-08T15:21:09;6.53;;;1.80;;
10851;SDS011;5479;52.046;6.314;2023-10-08T15:23:39;5.80;;;1.80;;
10851;SDS011;5479;52.046;6.314;2023-10-08T15:26:08;5.73;;;1.80;;
10851;SDS011;5479;52.046;6.314;2023-10-08T15:28:38;4.47;;;1.70;;
10851;SDS011;5479;52.046;6.314;2023-10-08T15:31:06;5.30;;;2.23;;
10851;SDS011;5479;52.046;6.314;2023-10-08T15:33:34;4.87;;;2.03;;